createdAt,value
2019-03-24T00:02:27.688Z,45.45
2019-03-24T00:05:01.710Z,45.30
2019-03-24T00:07:35.211Z,45.43
2019-03-24T00:10:12.142Z,41.28
2019-03-24T00:12:46.479Z,42.23
2019-03-24T00:15:26.313Z,41.67
2019-03-24T00:17:56.053Z,50.65
2019-03-24T00:20:30.044Z,53.83
2019-03-24T00:23:04.158Z,44.03
2019-03-24T00:25:38.034Z,48.25
2019-03-24T00:28:11.213Z,45.08
2019-03-24T00:30:45.922Z,47.45
2019-03-24T00:33:19.390Z,40.98
2019-03-24T00:35:54.840Z,42.70
2019-03-24T00:38:28.563Z,40.75
2019-03-24T00:41:02.169Z,47.78
2019-03-24T00:43:36.901Z,44.25
2019-03-24T00:46:10.718Z,42.67
2019-03-24T00:48:44.247Z,45.98
2019-03-24T00:51:18.023Z,46.48
2019-03-24T00:53:51.623Z,48.05
2019-03-24T00:56:26.335Z,42.88
2019-03-24T00:58:59.913Z,42.15
2019-03-24T01:01:33.331Z,44.55
2019-03-24T01:04:07.012Z,44.48
2019-03-24T01:06:40.895Z,41.50
2019-03-24T01:09:16.028Z,51.05
2019-03-24T01:14:22.716Z,40.78
2019-03-24T01:16:57.648Z,42.40
2019-03-24T01:19:31.759Z,42.90
2019-03-24T01:22:05.320Z,43.85
2019-03-24T01:24:38.848Z,41.48
2019-03-24T01:27:12.228Z,46.05
2019-03-24T01:29:45.962Z,48.52
2019-03-24T01:32:20.281Z,46.53
2019-03-24T01:37:27.550Z,42.13
2019-03-24T01:40:01.141Z,44.73
2019-03-24T01:42:34.747Z,42.75
2019-03-24T01:45:13.341Z,45.55
2019-03-24T01:47:47.104Z,42.60
2019-03-24T01:50:21.551Z,44.85
2019-03-24T01:52:56.669Z,45.30
2019-03-24T01:58:03.442Z,42.33
2019-03-24T02:00:38.218Z,46.33
2019-03-24T02:03:13.401Z,46.60
2019-03-24T02:08:20.525Z,44.10
2019-03-24T02:10:54.187Z,43.73
2019-03-24T02:13:28.591Z,45.80
2019-03-24T02:16:09.227Z,43.80
2019-03-24T02:18:39.783Z,44.25
2019-03-24T02:21:14.643Z,47.05
2019-03-24T02:23:48.766Z,42.23
2019-03-24T02:26:30.026Z,41.65
2019-03-24T02:29:11.412Z,47.93
2019-03-24T02:31:49.169Z,49.13
2019-03-24T02:34:29.005Z,44.88
2019-03-24T02:37:14.124Z,48.25
2019-03-24T02:39:49.331Z,40.33
2019-03-24T02:42:23.695Z,40.38
2019-03-24T02:45:00.226Z,38.70
2019-03-24T02:50:08.444Z,36.05
2019-03-24T02:52:43.269Z,34.50
2019-03-24T02:55:18.342Z,35.35
2019-03-24T02:57:52.049Z,32.35
2019-03-24T03:00:26.466Z,34.53
2019-03-24T03:03:02.088Z,35.25
2019-03-24T03:05:36.873Z,34.05
2019-03-24T03:08:11.491Z,38.33
2019-03-24T03:10:48.408Z,37.30
2019-03-24T03:13:23.696Z,36.20
2019-03-24T03:15:59.700Z,52.38
2019-03-24T03:18:34.851Z,44.77
2019-03-24T03:21:10.427Z,35.03
2019-03-24T03:23:44.946Z,48.58
2019-03-24T03:26:20.832Z,38.60
2019-03-24T03:28:56.127Z,32.20
2019-03-24T03:31:32.219Z,36.17
2019-03-24T03:34:06.303Z,37.05
2019-03-24T03:36:40.882Z,36.00
2019-03-24T03:39:15.024Z,36.50
2019-03-24T03:41:51.082Z,28.90
2019-03-24T03:44:25.447Z,33.55
2019-03-24T03:47:00.159Z,37.17
2019-03-24T03:49:35.242Z,34.13
2019-03-24T03:52:29.142Z,40.63
2019-03-24T03:55:03.024Z,38.05
2019-03-24T03:57:36.823Z,36.35
2019-03-24T04:00:12.107Z,35.38
2019-03-24T04:05:19.226Z,33.02
2019-03-24T04:07:53.882Z,27.40
2019-03-24T04:10:27.915Z,35.23
2019-03-24T04:13:02.009Z,38.53
2019-03-24T04:15:36.144Z,43.63
2019-03-24T04:18:10.098Z,36.80
2019-03-24T04:20:44.706Z,37.58
2019-03-24T04:23:19.257Z,32.10
2019-03-24T04:25:53.623Z,38.08
2019-03-24T04:28:27.571Z,33.20
2019-03-24T04:31:03.587Z,32.55
2019-03-24T04:33:38.749Z,32.73
2019-03-24T04:36:16.069Z,37.88
2019-03-24T04:38:50.148Z,35.85
2019-03-24T04:41:24.538Z,38.20
2019-03-24T04:43:58.851Z,37.13
2019-03-24T04:46:33.349Z,39.10
2019-03-24T04:49:07.496Z,37.03
2019-03-24T04:51:43.034Z,41.68
2019-03-24T04:54:17.223Z,49.20
2019-03-24T04:56:51.421Z,52.50
2019-03-24T04:59:25.402Z,55.95
2019-03-24T05:02:00.489Z,53.90
2019-03-24T05:04:36.317Z,37.23
2019-03-24T05:07:13.980Z,39.30
2019-03-24T05:12:23.849Z,43.48
2019-03-24T05:14:58.703Z,43.40
2019-03-24T05:17:33.411Z,38.70
2019-03-24T05:20:08.310Z,48.30
2019-03-24T05:22:42.729Z,40.12
2019-03-24T05:25:17.513Z,40.93
2019-03-24T05:27:51.730Z,41.23
2019-03-24T05:30:26.560Z,35.70
2019-03-24T05:33:01.178Z,42.95
2019-03-24T05:35:38.371Z,39.15
2019-03-24T05:38:12.815Z,33.48
2019-03-24T05:40:47.231Z,42.05
2019-03-24T05:43:23.068Z,38.38
2019-03-24T05:45:57.509Z,37.73
2019-03-24T05:48:31.560Z,38.33
2019-03-24T05:51:08.457Z,38.20
2019-03-24T05:53:43.049Z,38.42
2019-03-24T05:56:19.043Z,36.35
2019-03-24T05:58:53.843Z,43.80
2019-03-24T06:01:28.269Z,38.60
2019-03-24T06:04:03.608Z,33.80
2019-03-24T06:06:39.211Z,42.38
2019-03-24T06:09:13.651Z,38.20
2019-03-24T06:11:51.443Z,35.30
2019-03-24T06:14:27.012Z,43.30
2019-03-24T06:17:03.490Z,38.73
2019-03-24T06:19:39.438Z,39.55
2019-03-24T06:22:19.284Z,39.40
2019-03-24T06:24:59.325Z,41.58
2019-03-24T06:27:36.243Z,37.80
2019-03-24T06:30:13.281Z,40.17
2019-03-24T06:32:49.287Z,36.90
2019-03-24T06:35:25.789Z,37.05
2019-03-24T06:38:01.685Z,39.60
2019-03-24T06:40:41.612Z,46.83
2019-03-24T06:43:21.646Z,47.65
2019-03-24T06:45:59.395Z,46.58
2019-03-24T06:48:39.883Z,51.20
2019-03-24T06:51:18.164Z,55.92
2019-03-24T06:53:55.046Z,61.23
2019-03-24T06:56:30.273Z,62.05
2019-03-24T07:01:37.712Z,56.15
2019-03-24T07:04:12.410Z,64.13
2019-03-24T07:06:47.717Z,59.60
2019-03-24T07:09:22.704Z,60.73
2019-03-24T07:12:01.113Z,59.75
2019-03-24T07:14:37.096Z,57.53
2019-03-24T07:17:19.323Z,61.42
2019-03-24T07:19:59.083Z,63.45
2019-03-24T07:22:36.602Z,58.90
2019-03-24T07:25:12.945Z,56.30
2019-03-24T07:27:47.991Z,56.42
2019-03-24T07:30:26.028Z,56.20
2019-03-24T07:33:00.395Z,53.98
2019-03-24T07:35:35.538Z,57.20
2019-03-24T07:38:10.019Z,50.25
2019-03-24T07:40:45.789Z,58.35
2019-03-24T07:43:20.804Z,54.63
2019-03-24T07:45:55.203Z,51.53
2019-03-24T07:48:31.686Z,60.03
2019-03-24T07:51:06.576Z,52.23
2019-03-24T07:53:41.345Z,54.38
2019-03-24T07:56:19.256Z,53.58
2019-03-24T07:58:56.453Z,48.38
2019-03-24T08:01:33.495Z,45.35
2019-03-24T08:04:09.729Z,49.50
2019-03-24T08:06:43.975Z,46.88
2019-03-24T08:11:54.934Z,52.83
2019-03-24T08:14:29.706Z,49.70
2019-03-24T08:19:36.629Z,46.33
2019-03-24T08:22:11.073Z,53.90
2019-03-24T08:24:45.615Z,46.35
2019-03-24T08:27:21.062Z,46.42
2019-03-24T08:29:56.641Z,52.25
2019-03-24T08:32:32.728Z,49.15
2019-03-24T08:35:07.821Z,54.27
2019-03-24T08:37:43.859Z,47.13
2019-03-24T08:40:18.908Z,50.85
2019-03-24T08:42:53.937Z,56.80
2019-03-24T08:45:32.132Z,52.67
2019-03-24T08:48:07.794Z,51.30
2019-03-24T08:50:41.918Z,56.77
2019-03-24T08:55:50.214Z,50.67
2019-03-24T08:58:29.302Z,51.97
2019-03-24T09:01:08.922Z,48.60
2019-03-24T09:03:50.035Z,54.67
2019-03-24T09:06:27.799Z,55.43
2019-03-24T09:09:01.923Z,53.28
2019-03-24T09:11:36.524Z,53.02
2019-03-24T09:14:11.818Z,53.38
2019-03-24T09:16:47.922Z,46.50
2019-03-24T09:19:23.028Z,52.70
2019-03-24T09:24:29.764Z,53.68
2019-03-24T09:27:04.983Z,56.37
2019-03-24T09:29:39.037Z,57.08
2019-03-24T09:32:13.244Z,92.80
2019-03-24T09:34:49.868Z,58.52
2019-03-24T09:37:26.919Z,53.83
2019-03-24T09:40:01.626Z,66.72
2019-03-24T09:42:36.061Z,51.63
2019-03-24T09:45:11.244Z,57.83
2019-03-24T09:50:19.523Z,55.70
2019-03-24T09:52:55.746Z,57.60
2019-03-24T09:55:31.437Z,62.27
2019-03-24T09:58:05.947Z,57.48
2019-03-24T10:00:40.712Z,64.32
2019-03-24T10:03:15.394Z,67.15
2019-03-24T10:05:49.900Z,57.03
2019-03-24T10:08:23.833Z,60.85
2019-03-24T10:10:58.566Z,85.45
2019-03-24T10:13:32.845Z,61.70
2019-03-24T10:16:06.772Z,75.22
2019-03-24T10:18:40.826Z,56.00
2019-03-24T10:21:15.165Z,55.60
2019-03-24T10:24:02.732Z,54.07
2019-03-24T10:26:38.914Z,49.13
2019-03-24T10:29:25.988Z,49.00
2019-03-24T10:32:03.902Z,60.63
2019-03-24T10:34:38.200Z,55.73
2019-03-24T10:37:13.488Z,62.53
2019-03-24T10:39:47.779Z,63.83
2019-03-24T10:42:22.135Z,62.88
2019-03-24T10:44:56.426Z,57.93
2019-03-24T10:47:30.956Z,59.70
2019-03-24T10:50:04.866Z,55.12
2019-03-24T10:52:41.147Z,56.45
2019-03-24T10:55:16.625Z,58.13
2019-03-24T10:57:52.484Z,62.17
2019-03-24T11:03:10.491Z,59.40
2019-03-24T11:05:45.749Z,61.53
2019-03-24T11:08:20.528Z,65.92
2019-03-24T11:10:57.642Z,60.67
2019-03-24T11:13:32.006Z,66.72
2019-03-24T11:16:08.126Z,67.67
2019-03-24T11:18:43.594Z,66.30
2019-03-24T11:21:17.883Z,66.72
2019-03-24T11:23:52.156Z,69.85
2019-03-24T11:26:27.032Z,59.33
2019-03-24T11:29:02.934Z,66.90
2019-03-24T11:31:39.550Z,58.85
2019-03-24T11:34:17.820Z,60.75
2019-03-24T11:36:54.597Z,68.62
2019-03-24T11:39:30.796Z,58.42
2019-03-24T11:42:11.418Z,59.83
2019-03-24T11:44:53.479Z,64.70
2019-03-24T11:47:28.368Z,64.77
2019-03-24T11:50:03.699Z,63.50
2019-03-24T11:52:38.775Z,60.40
2019-03-24T11:55:15.510Z,59.33
2019-03-24T11:57:51.502Z,66.70
2019-03-24T12:00:30.697Z,58.48
2019-03-24T12:03:05.476Z,62.88
2019-03-24T12:05:40.029Z,62.48
2019-03-24T12:08:14.102Z,61.40
2019-03-24T12:10:48.843Z,62.25
2019-03-24T12:13:24.655Z,59.98
2019-03-24T12:16:00.178Z,53.28
2019-03-24T12:18:34.189Z,60.85
2019-03-24T12:21:07.846Z,63.60
2019-03-24T12:23:42.499Z,56.45
2019-03-24T12:26:17.876Z,55.50
2019-03-24T12:28:54.205Z,57.50
2019-03-24T12:34:44.851Z,51.60
2019-03-24T12:37:36.033Z,48.75
2019-03-24T12:40:13.826Z,51.63
2019-03-24T12:42:49.399Z,49.03
2019-03-24T12:45:25.024Z,50.05
2019-03-24T12:47:59.778Z,50.52
2019-03-24T12:50:34.958Z,43.90
2019-03-24T12:53:10.339Z,50.65
2019-03-24T12:58:18.144Z,48.52
2019-03-24T13:00:52.664Z,43.10
2019-03-24T13:03:27.369Z,49.85
2019-03-24T13:06:01.652Z,46.85
2019-03-24T13:08:37.858Z,43.87
2019-03-24T13:11:12.388Z,44.83
2019-03-24T13:13:46.947Z,44.98
2019-03-24T13:16:21.945Z,51.13
2019-03-24T13:18:55.994Z,48.33
2019-03-24T13:21:30.923Z,54.55
2019-03-24T13:24:06.136Z,43.08
2019-03-24T13:26:45.120Z,51.70
2019-03-24T13:29:24.671Z,51.85
2019-03-24T13:32:06.188Z,47.73
2019-03-24T13:34:42.540Z,49.50
2019-03-24T13:37:17.101Z,48.92
2019-03-24T13:39:51.855Z,46.60
2019-03-24T13:42:29.925Z,44.70
2019-03-24T13:45:04.593Z,46.25
2019-03-24T13:47:39.610Z,54.10
2019-03-24T13:50:14.345Z,46.60
2019-03-24T13:52:49.132Z,34.23
2019-03-24T13:55:23.450Z,44.48
2019-03-24T13:58:16.904Z,44.77
2019-03-24T14:00:54.231Z,40.05
2019-03-24T14:03:28.794Z,48.25
2019-03-24T14:06:07.627Z,41.65
2019-03-24T14:08:42.926Z,48.98
2019-03-24T14:11:19.137Z,49.45
2019-03-24T14:13:54.484Z,45.88
2019-03-24T14:16:28.965Z,47.83
2019-03-24T14:19:05.315Z,45.60
2019-03-24T14:21:43.984Z,46.00
2019-03-24T14:24:20.613Z,44.50
2019-03-24T14:26:59.796Z,42.67
2019-03-24T14:29:39.238Z,45.45
2019-03-24T14:32:14.804Z,45.23
2019-03-24T14:34:53.233Z,45.33
2019-03-24T14:37:27.493Z,43.20
2019-03-24T14:40:03.710Z,43.43
2019-03-24T14:42:43.269Z,48.35
2019-03-24T14:45:21.135Z,54.40
2019-03-24T14:48:14.487Z,45.80
2019-03-24T14:50:54.687Z,45.38
2019-03-24T14:53:29.969Z,40.08
2019-03-24T14:56:04.137Z,47.67
2019-03-24T14:58:40.721Z,49.37
2019-03-24T15:01:15.450Z,41.63
2019-03-24T15:03:55.480Z,47.30
2019-03-24T15:06:32.471Z,43.80
2019-03-24T15:09:08.845Z,44.70
2019-03-24T15:11:53.358Z,41.33
2019-03-24T15:14:31.965Z,47.05
2019-03-24T15:17:09.844Z,46.13
2019-03-24T15:19:50.659Z,43.65
2019-03-24T15:22:32.256Z,43.60
2019-03-24T15:25:09.732Z,43.40
2019-03-24T15:27:50.253Z,49.58
2019-03-24T15:30:29.213Z,43.35
2019-03-24T15:33:05.432Z,41.63
2019-03-24T15:35:40.969Z,40.30
2019-03-24T15:38:23.024Z,45.50
2019-03-24T15:40:59.349Z,40.85
2019-03-24T15:43:35.189Z,40.95
2019-03-24T15:46:11.645Z,50.55
2019-03-24T15:48:46.627Z,46.13
2019-03-24T15:51:28.764Z,43.08
2019-03-24T15:57:19.818Z,49.58
2019-03-24T16:02:50.508Z,46.77
2019-03-24T16:05:24.371Z,45.70
2019-03-24T16:07:58.881Z,48.28
2019-03-24T16:10:36.879Z,45.88
2019-03-24T16:13:15.582Z,49.48
2019-03-24T16:15:49.872Z,51.50
2019-03-24T16:18:24.421Z,51.00
2019-03-24T16:21:02.885Z,46.75
2019-03-24T16:23:37.468Z,39.78
2019-03-24T16:26:21.543Z,37.58
2019-03-24T16:28:56.415Z,45.95
2019-03-24T16:31:32.067Z,37.60
2019-03-24T16:34:06.072Z,38.33
2019-03-24T16:36:42.350Z,32.88
2019-03-24T16:39:16.729Z,34.83
2019-03-24T16:41:52.041Z,29.93
2019-03-24T16:47:04.104Z,41.70
2019-03-24T16:49:40.704Z,37.00
2019-03-24T16:52:17.317Z,38.13
2019-03-24T16:54:53.441Z,38.67
2019-03-24T16:57:31.636Z,35.08
2019-03-24T17:03:00.948Z,31.95
2019-03-24T17:05:35.318Z,35.10
2019-03-24T17:08:10.125Z,34.80
2019-03-24T17:10:44.914Z,35.23
2019-03-24T17:13:19.484Z,37.78
2019-03-24T17:15:56.013Z,34.15
2019-03-24T17:21:03.045Z,32.33
2019-03-24T17:23:38.311Z,32.23
2019-03-24T17:26:13.847Z,30.23
2019-03-24T17:28:48.335Z,28.37
2019-03-24T17:31:24.073Z,29.30
2019-03-24T17:33:59.704Z,30.52
2019-03-24T17:36:35.368Z,25.68
2019-03-24T17:39:10.898Z,27.20
2019-03-24T17:41:46.357Z,28.05
2019-03-24T17:44:21.266Z,30.80
2019-03-24T17:46:57.571Z,28.17
2019-03-24T17:49:32.845Z,27.62
2019-03-24T17:52:07.842Z,26.87
2019-03-24T17:54:43.177Z,25.70
2019-03-24T17:57:17.093Z,27.90
2019-03-24T17:59:51.103Z,26.20
2019-03-24T18:02:26.384Z,28.75
2019-03-24T18:07:32.698Z,33.40
2019-03-24T18:10:07.063Z,28.55
2019-03-24T18:12:42.505Z,21.73
2019-03-24T18:15:16.775Z,25.62
2019-03-24T18:17:51.426Z,24.43
2019-03-24T18:20:38.211Z,23.20
2019-03-24T18:23:12.378Z,21.48
2019-03-24T18:25:46.730Z,21.93
2019-03-24T18:28:23.234Z,24.00
2019-03-24T18:30:59.147Z,22.13
2019-03-24T18:33:32.936Z,20.10
2019-03-24T18:36:06.763Z,19.77
2019-03-24T18:38:40.253Z,20.88
2019-03-24T18:41:14.561Z,21.45
2019-03-24T18:43:50.629Z,21.35
2019-03-24T18:46:23.645Z,19.55
2019-03-24T18:48:57.740Z,23.02
2019-03-24T18:51:31.017Z,21.85
2019-03-24T18:54:04.467Z,24.10
2019-03-24T18:56:38.173Z,22.58
2019-03-24T18:59:11.710Z,26.87
2019-03-24T19:01:44.918Z,23.38
2019-03-24T19:04:18.169Z,20.35
2019-03-24T19:06:51.526Z,24.82
2019-03-24T19:09:24.601Z,18.92
2019-03-24T19:11:58.117Z,23.50
2019-03-24T19:14:31.659Z,24.18
2019-03-24T19:17:05.458Z,24.47
2019-03-24T19:19:39.779Z,24.95
2019-03-24T19:22:14.504Z,22.62
2019-03-24T19:24:48.108Z,24.12
2019-03-24T19:27:21.719Z,20.70
2019-03-24T19:29:56.461Z,23.60
2019-03-24T19:32:32.692Z,21.40
2019-03-24T19:35:07.931Z,23.42
2019-03-24T19:37:42.230Z,22.70
2019-03-24T19:40:32.743Z,23.60
2019-03-24T19:43:06.669Z,26.77
2019-03-24T19:45:40.481Z,24.00
2019-03-24T19:48:14.898Z,26.90
2019-03-24T19:50:48.608Z,23.73
2019-03-24T19:53:21.984Z,27.25
2019-03-24T19:55:55.402Z,27.82
2019-03-24T19:58:29.761Z,28.98
2019-03-24T20:01:03.308Z,28.95
2019-03-24T20:03:36.999Z,31.00
2019-03-24T20:06:10.521Z,27.85
2019-03-24T20:08:44.099Z,32.95
2019-03-24T20:11:18.781Z,35.03
2019-03-24T20:13:53.385Z,31.25
2019-03-24T20:16:26.991Z,32.65
2019-03-24T20:19:00.258Z,34.03
2019-03-24T20:21:34.257Z,35.58
2019-03-24T20:24:07.350Z,38.58
2019-03-24T20:26:44.287Z,38.90
2019-03-24T20:29:19.429Z,40.17
2019-03-24T20:31:53.309Z,38.65
2019-03-24T20:34:26.881Z,39.13
2019-03-24T20:37:00.555Z,40.28
2019-03-24T20:39:34.549Z,46.63
2019-03-24T20:42:08.032Z,41.30
2019-03-24T20:44:41.938Z,40.33
2019-03-24T20:47:15.623Z,43.58
2019-03-24T20:49:50.217Z,41.48
2019-03-24T20:52:24.970Z,36.90
2019-03-24T20:54:58.426Z,41.53
2019-03-24T20:57:32.075Z,46.98
2019-03-24T21:00:07.184Z,43.45
2019-03-24T21:02:43.967Z,40.50
2019-03-24T21:05:17.473Z,40.17
2019-03-24T21:07:51.259Z,42.95
2019-03-24T21:10:24.880Z,42.93
2019-03-24T21:12:58.599Z,46.10
2019-03-24T21:15:31.877Z,41.98
2019-03-24T21:18:05.684Z,43.13
2019-03-24T21:20:39.085Z,39.85
2019-03-24T21:23:13.169Z,38.78
2019-03-24T21:25:47.154Z,45.90
2019-03-24T21:28:21.270Z,41.77
2019-03-24T21:31:14.929Z,33.58
2019-03-24T21:33:48.669Z,43.23
2019-03-24T21:36:22.396Z,43.55
2019-03-24T21:38:56.119Z,43.87
2019-03-24T21:41:29.732Z,42.55
2019-03-24T21:44:03.795Z,45.63
2019-03-24T21:46:37.792Z,45.75
2019-03-24T21:49:11.614Z,44.95
2019-03-24T21:51:45.637Z,46.30
2019-03-24T21:54:19.919Z,48.05
2019-03-24T21:56:53.838Z,45.73
2019-03-24T21:59:27.459Z,46.83
2019-03-24T22:02:01.076Z,45.95
2019-03-24T22:04:34.655Z,43.15
2019-03-24T22:07:08.547Z,46.92
2019-03-24T22:09:42.971Z,43.73
2019-03-24T22:12:16.676Z,39.73
2019-03-24T22:14:51.453Z,42.55
2019-03-24T22:17:24.829Z,45.08
2019-03-24T22:19:59.239Z,44.23
2019-03-24T22:22:34.315Z,39.83
2019-03-24T22:25:08.487Z,48.73
2019-03-24T22:27:42.054Z,40.25
2019-03-24T22:30:16.479Z,46.33
2019-03-24T22:32:50.078Z,45.78
2019-03-24T22:35:23.958Z,45.88
2019-03-24T22:37:57.487Z,46.28
2019-03-24T22:40:30.924Z,43.60
2019-03-24T22:43:04.593Z,49.03
2019-03-24T22:45:38.317Z,46.55
2019-03-24T22:48:11.776Z,45.52
2019-03-24T22:50:46.598Z,45.75
2019-03-24T22:53:21.374Z,48.15
2019-03-24T22:55:55.746Z,41.73
2019-03-24T22:58:30.332Z,46.05
2019-03-24T23:01:04.217Z,42.23
2019-03-24T23:03:39.217Z,51.10
2019-03-24T23:06:13.737Z,45.23
2019-03-24T23:08:48.608Z,45.63
2019-03-24T23:11:23.115Z,39.35
2019-03-24T23:13:57.109Z,37.35
2019-03-24T23:16:33.344Z,41.37
2019-03-24T23:19:09.010Z,41.42
2019-03-24T23:21:43.664Z,42.08
2019-03-24T23:24:17.247Z,40.83
2019-03-24T23:26:51.349Z,42.85
2019-03-24T23:29:26.249Z,41.25
2019-03-24T23:32:00.222Z,38.98
2019-03-24T23:34:35.378Z,44.10
2019-03-24T23:37:08.756Z,36.33
2019-03-24T23:39:44.624Z,41.50
2019-03-24T23:42:19.909Z,43.90
2019-03-24T23:47:27.215Z,45.50
2019-03-24T23:50:01.842Z,47.00
2019-03-24T23:52:35.849Z,37.93
2019-03-24T23:55:10.145Z,40.83
